• Join FlightAware (Why Join?)
  • Login
  • US Flag 
03:21AM EDT


 

Airport Tracker/Info


-or-


 

Live Flight TrackerFlight Track Log ✈ DAL1809 ✈ 22-Apr-2013 ✈ KCVG - KFLL

Flight Track Log - Related Links

Times and Time Zones

All times are in EDT time to prevent confusion due to time zone crossing. See the DAL1809 flight status page for this flight to view local times or setup timezone preferences in your user account.

Time Position Orientation Groundspeed Altitude Reporting Facility
EDT Latitude Longitude Course Direction KTS MPH feet Rate Location/Type
11:53AM 39.0333 -84.6667 175° South 165 190 1,300  Level Cincinnati TRACON
11:54AM 39.0333 -84.6667 175° South 165 190 2,200 2,040 Climbing Cincinnati TRACON
11:55AM 38.9667 -84.6667 180° South 224 258 4,000 2,520 Climbing Cincinnati TRACON
11:56AM 38.6968 -84.5767 165° South  Level FlightAware Approximate
11:56AM 38.9000 -84.6833 191° South 273 314 7,500  Level Cincinnati TRACON
11:57AM 38.5807 -84.5409 167° South  Level FlightAware Approximate
11:57AM 38.8333 -84.6592 164° South 276 318 10,100  Level Indianapolis Center
11:58AM 38.4647 -84.5049 165° South  Level FlightAware Approximate
11:58AM 38.7486 -84.6258 163° South 320 368 12,100  Level Indianapolis Center
11:59AM 38.3461 -84.4936 175° South  Level FlightAware Approximate
11:59AM 38.6556 -84.5872 162° South 348 400 14,500  Level Indianapolis Center
12:00PM 38.5553 -84.5597 168° South 366 421 17,100 2,220 Climbing Indianapolis Center
12:01PM 38.4497 -84.5325 169° South 384 442 19,100 2,040 Climbing Indianapolis Center
12:02PM 38.3411 -84.5039 168° South 395 455 21,400 2,100 Climbing Indianapolis Center
12:03PM 38.2322 -84.4753 168° South 398 458 23,500 1,920 Climbing Indianapolis Center
12:04PM 38.1011 -84.4417 169° South 406 467 25,400 1,440 Climbing Indianapolis Center
12:06PM 37.8594 -84.4356 179° South 433 498 28,100 1,200 Climbing Indianapolis Center
12:07PM 37.7347 -84.4319 179° South 444 511 29,100 960 Climbing Indianapolis Center
12:08PM 37.6072 -84.4269 178° South 457 526 30,100 1,380 Climbing Indianapolis Center
12:09PM 37.4803 -84.4208 178° South 459 528 32,000 1,500 Climbing Indianapolis Center
12:10PM 37.3572 -84.4156 178° South 447 514 33,200 1,140 Climbing Indianapolis Center
12:11PM 37.2125 -84.4106 178° South 447 514 34,400 1,200 Climbing Indianapolis Center
12:12PM 37.0911 -84.4064 178° South 439 505 35,800 1,380 Climbing Indianapolis Center
12:13PM 36.9725 -84.4017 178° South 428 493 37,300 780 Climbing Indianapolis Center
12:14PM 36.8567 -84.3975 178° South 418 481 37,500 240 Climbing Indianapolis Center
12:15PM 36.7381 -84.3936 178° South 425 489 37,800 240 Climbing Indianapolis Center
12:16PM 36.6169 -84.3875 178° South 433 498 38,100 240 Climbing Indianapolis Center
12:17PM 36.4881 -84.3847 179° South 428 493 38,400 240 Climbing Indianapolis Center
12:18PM 36.3689 -84.3783 178° South 427 491 38,700 240 Climbing Indianapolis Center
12:19PM 36.2894 -84.3786 180° South 432 497 38,900 120 Climbing Atlanta Center
12:20PM 36.1683 -84.3731 178° South 432 497 39,000  Climbing Atlanta Center
12:21PM 36.0453 -84.3675 178° South 432 497 39,000 -420 Level Atlanta Center
12:22PM 35.9286 -84.3619 178° South 432 497 38,200 -900 Descending Atlanta Center
12:23PM 35.8158 -84.3614 180° South 432 497 37,200 -600 Descending Atlanta Center
12:24PM 35.6969 -84.3558 178° South 426 490 37,000 -120 Descending Atlanta Center
12:25PM 35.5822 -84.3528 179° South 421 484 37,000  Level Atlanta Center
12:26PM 35.4656 -84.3472 178° South 421 484 37,000  Level Atlanta Center
12:27PM 35.3486 -84.3417 178° South 421 484 37,000  Level Atlanta Center
12:28PM 35.2339 -84.3414 180° South 421 484 37,000  Level Atlanta Center
12:29PM 35.1192 -84.3358 178° South 421 484 37,000  Level Atlanta Center
12:30PM 35.0064 -84.3328 179° South 421 484 37,000  Level Atlanta Center
12:31PM 34.8814 -84.3275 178° South 415 478 37,000  Level Atlanta Center
12:32PM 34.7644 -84.3219 178° South 416 479 37,000  Level Atlanta Center
12:33PM 34.6497 -84.3192 179° South 416 479 37,000  Level Atlanta Center
12:34PM 34.5328 -84.3136 178° South 422 486 37,000  Level Atlanta Center
12:35PM 34.4158 -84.3108 179° South 422 486 37,000  Level Atlanta Center
12:36PM 34.2992 -84.3053 178° South 422 486 37,000  Level Atlanta Center
12:37PM 34.1822 -84.3100 182° South 422 486 37,000  Level Atlanta Center
12:38PM 34.0756 -84.3297 189° South 427 491 37,000  Level Atlanta Center
12:39PM 33.9650 -84.3569 192° South 427 491 37,000  Level Atlanta Center
12:40PM 33.8481 -84.3864 192° South 423 487 37,000  Level Atlanta Center
12:41PM 33.7414 -84.4111 191° South 423 487 37,000  Level Atlanta Center
12:42PM 33.6225 -84.4231 185° South 429 494 37,000  Level Atlanta Center
12:43PM 33.4911 -84.3825 166° South 422 486 37,000  Level Atlanta Center
12:44PM 33.3786 -84.3322 160° South 428 493 37,000  Level Atlanta Center
12:45PM 33.2658 -84.2847 161° South 437 503 37,000  Level Atlanta Center
12:46PM 33.1492 -84.2397 162° South 437 503 37,000  Level Atlanta Center
12:47PM 33.0386 -84.1875 158° South 442 509 37,000  Level Atlanta Center
12:48PM 32.9239 -84.1428 162° South 442 509 37,000  Level Atlanta Center
12:49PM 32.8069 -84.0981 162° South 442 509 37,000  Level Atlanta Center
12:50PM 32.6922 -84.0486 160° South 442 509 37,000  Level Atlanta Center
12:51PM 32.5772 -83.9994 160° South 442 509 37,000  Level Atlanta Center
12:52PM 32.4606 -83.9553 162° South 442 509 37,000  Level Atlanta Center
12:53PM 32.3456 -83.9061 160° South 442 509 37,000  Level Atlanta Center
12:54PM 32.2308 -83.8597 161° South 442 509 37,000  Level Atlanta Center
12:55PM 32.0506 -83.7847 161° South 430 495 37,000  Level Jacksonville Center
12:56PM 31.9342 -83.7372 161° South 430 495 37,000  Level Jacksonville Center
12:57PM 31.8194 -83.6922 162° South 435 501 37,000 -60 Level Jacksonville Center
12:58PM 31.7028 -83.6422 160° South 440 506 36,900  Descending Jacksonville Center
12:59PM 31.5694 -83.5925 162° South 455 524 37,000  Climbing Jacksonville Center
01:00PM 31.4528 -83.5453 161° South 455 524 37,000  Level Jacksonville Center
01:01PM 31.3342 -83.4981 161° South 455 524 37,000  Level Jacksonville Center
01:02PM 31.2175 -83.4514 161° South 455 524 37,000  Level Jacksonville Center
01:03PM 31.0964 -83.4044 162° South 455 524 37,000  Level Jacksonville Center
01:04PM 30.9797 -83.3603 162° South 455 524 37,000  Level Jacksonville Center
01:05PM 30.8608 -83.3114 161° South 455 524 37,000  Level Jacksonville Center
01:06PM 30.7567 -83.2650 159° South 449 517 37,000 -60 Level Jacksonville Center
01:07PM 30.6419 -83.2089 157° South 449 517 36,900  Descending Jacksonville Center
01:08PM 30.5231 -83.1506 157° South 455 524 37,000  Climbing Jacksonville Center
01:09PM 30.4083 -83.0925 156° South 455 524 37,000  Level Jacksonville Center
01:10PM 30.2914 -83.0344 157° South 455 524 37,000 -60 Level Jacksonville Center
01:11PM 30.1789 -82.9792 157° South 450 518 36,900 -60 Descending Jacksonville Center
01:12PM 30.0661 -82.9214 156° South 445 512 36,900  Level Jacksonville Center
01:13PM 29.9492 -82.8686 159° South 450 518 37,000  Climbing Jacksonville Center
01:14PM 29.8344 -82.8111 156° South 450 518 37,000  Level Jacksonville Center
01:15PM 29.7172 -82.7539 157° South 456 525 37,000  Level Jacksonville Center
01:16PM 29.6044 -82.6992 157° South 456 525 37,000 -60 Level Jacksonville Center
01:17PM 29.4750 -82.6325 156° South 456 525 36,900 -60 Descending Jacksonville Center
01:18PM 29.3622 -82.5756 156° South 456 525 36,900  Level Jacksonville Center
01:19PM 29.2450 -82.5189 157° South 456 525 37,000  Climbing Jacksonville Center
01:20PM 29.1303 -82.4694 159° South 456 525 37,000  Level Jacksonville Center
01:21PM 29.0089 -82.4511 172° South 434 499 37,000 -60 Level Jacksonville Center
01:22PM 28.8922 -82.4586 183° South 434 499 36,900 -60 Descending Jacksonville Center
01:23PM 28.7711 -82.4639 182° South 429 494 36,900  Level Jacksonville Center
01:24PM 28.6522 -82.4761 185° South 429 494 37,000  Climbing Jacksonville Center
01:25PM 28.5333 -82.4792 181° South 429 494 36,900  Descending Jacksonville Center
01:26PM 28.4100 -82.4867 183° South 429 494 37,000  Climbing Jacksonville Center
01:29PM 28.1061 -82.5050 183° South 437 503 37,000  Level Miami Center
01:30PM 27.9872 -82.5039 180° South 416 479 37,000  Level Miami Center
01:31PM 27.8611 -82.4764 169° South 433 498 37,000 -300 Level Miami Center
01:32PM 27.7481 -82.4333 161° South 439 505 36,400 -780 Descending Miami Center
01:33PM 27.6267 -82.3900 162° South 450 518 35,500 -960 Descending Miami Center
01:34PM 27.5053 -82.3444 162° South 459 528 34,500 -960 Descending Miami Center
01:35PM 27.3942 -82.3039 162° South 459 528 33,600 -1,020 Descending Miami Center
01:36PM 27.2644 -82.2581 163° South 448 516 32,500 -1,020 Descending Miami Center
01:37PM 27.1533 -82.2156 161° South 435 501 31,600 -900 Descending Miami Center
01:38PM 27.0339 -82.1728 162° South 440 506 30,700 -960 Descending Miami Center
01:39PM 26.9144 -82.1303 162° South 446 513 29,700 -1,020 Descending Miami Center
01:40PM 26.8008 -82.0903 163° South 446 513 28,700 -1,380 Descending Miami Center
01:41PM 26.7103 -81.9978 138° Southeast 428 493 27,000 -2,160 Descending Miami Center
01:42PM 26.6433 -81.8833 123° Southeast 420 483 24,400 -2,400 Descending Miami Center
01:43PM 26.5739 -81.7758 126° Southeast 426 490 22,200 -1,800 Descending Miami Center
01:44PM 26.5086 -81.6711 125° Southeast 426 490 20,800 -2,220 Descending Miami Center
01:45PM 26.4517 -81.5622 120° Southeast 410 472 17,800 -2,760 Descending Miami Center
01:46PM 26.4069 -81.4583 116° Southeast 388 447 15,300 -1,980 Descending Miami Center
01:47PM 26.3681 -81.3617 114° Southeast 361 415 13,900 -900 Descending Miami Center
01:48PM 26.3292 -81.2653 114° Southeast 347 399 13,600 -900 Descending Miami Center
01:49PM 26.2900 -81.1806 117° Southeast 330 380 12,200 -1,800 Descending Miami Center
01:51PM 26.2097 -80.9947 116° Southeast 282 325 8,000 -1,440 Descending Miami Center
01:52PM 26.1822 -80.9381 118° Southeast 278 320 7,800 -360 Descending Miami Center
01:52PM 26.1656 -80.9306 158° South 242 278 7,600 -1,200 Descending Miami Center
01:53PM 26.1269 -80.8922 138° Southeast 254 292 6,600 -1,320 Descending Miami Center
01:53PM 26.1106 -80.8872 165° South 242 278 6,300 -720 Descending Miami Center
01:54PM 26.0783 -80.8444 130° Southeast 246 283 5,900 -300 Descending Miami Center
01:54PM 26.0767 -80.8258 96° East 244 281 6,000 60 Climbing Miami Center
01:55PM 26.0781 -80.7706 88° East 217 250 6,000  Level Miami Center
01:55PM 26.0747 -80.7472 99° East 240 276 6,000 -120 Level Miami Center
01:56PM 26.0781 -80.6964 86° East 222 255 5,900  Descending Miami Center
01:56PM 26.0831 -80.6689 79° East 243 280 6,000  Climbing Miami Center
01:57PM 26.0986 -80.6278 67° East 222 255 5,900  Descending Miami Center
01:57PM 26.1056 -80.6003 74° East 239 275 6,000 60 Climbing Miami Center
01:58PM 26.1214 -80.5567 68° East 227 261 6,000  Level Miami Center
01:58PM 26.1217 -80.5428 89° East 240 276 6,000 -120 Level Miami Center
01:59PM 26.1447 -80.4511 74° East 239 275 5,900 -480 Descending Miami Center
02:00PM 26.1211 -80.3925 114° Southeast 219 252 5,000 -1,200 Descending Miami Center
02:01PM 26.0847 -80.3406 128° Southeast 203 234 3,600 -1,380 Descending Miami Center
02:02PM 26.0736 -80.2869 103° East 174 200 2,200 -1,380 Descending Miami Center